createdAt,value
2019-05-01T00:01:27.251Z,92.25
2019-05-01T00:04:10.217Z,91.85
2019-05-01T00:06:45.162Z,91.78
2019-05-01T00:09:16.848Z,91.24
2019-05-01T00:11:48.511Z,91.04
2019-05-01T00:14:20.288Z,91.14
2019-05-01T00:16:52.305Z,91.23
2019-05-01T00:19:23.861Z,91.22
2019-05-01T00:21:55.391Z,91.32
2019-05-01T00:24:27.056Z,91.12
2019-05-01T00:26:58.826Z,90.99
2019-05-01T00:29:30.750Z,91.15
2019-05-01T00:32:02.534Z,90.99
2019-05-01T00:34:34.180Z,91.17
2019-05-01T00:37:05.807Z,91.59
2019-05-01T00:39:37.438Z,91.46
2019-05-01T00:42:09.003Z,90.96
2019-05-01T00:44:40.613Z,91.25
2019-05-01T00:47:12.234Z,91.32
2019-05-01T00:49:44.795Z,91.37
2019-05-01T00:52:16.415Z,91.26
2019-05-01T00:54:49.772Z,91.46
2019-05-01T00:57:37.285Z,91.50
2019-05-01T01:00:42.639Z,91.26
2019-05-01T01:03:04.706Z,91.21
2019-05-01T01:05:36.294Z,91.26
2019-05-01T01:08:07.847Z,91.24
2019-05-01T01:10:39.338Z,91.32
2019-05-01T01:13:10.851Z,91.13
2019-05-01T01:15:42.352Z,91.13
2019-05-01T01:18:13.893Z,90.82
2019-05-01T01:20:45.455Z,90.63
2019-05-01T01:23:18.349Z,90.44
2019-05-01T01:25:49.942Z,90.23
2019-05-01T01:28:21.729Z,90.22
2019-05-01T01:30:56.499Z,90.06
2019-05-01T01:33:27.563Z,90.35
2019-05-01T01:35:59.161Z,90.23
2019-05-01T01:38:30.716Z,90.10
2019-05-01T01:41:02.359Z,90.10
2019-05-01T01:43:53.020Z,90.23
2019-05-01T01:46:26.528Z,90.33
2019-05-01T01:48:59.332Z,90.10
2019-05-01T01:51:30.978Z,89.83
2019-05-01T01:54:03.027Z,89.47
2019-05-01T01:56:34.531Z,89.17
2019-05-01T01:59:07.275Z,89.13
2019-05-01T02:02:03.851Z,89.15
2019-05-01T02:04:54.504Z,89.35
2019-05-01T02:07:26.180Z,89.93
2019-05-01T02:09:57.909Z,90.47
2019-05-01T02:12:29.763Z,91.10
2019-05-01T02:15:01.368Z,90.66
2019-05-01T02:17:32.996Z,91.03
2019-05-01T02:20:05.949Z,90.84
2019-05-01T02:22:37.479Z,90.81
2019-05-01T02:25:10.847Z,91.42
2019-05-01T02:28:10.488Z,91.90
2019-05-01T02:30:45.890Z,91.97
2019-05-01T02:33:18.061Z,91.95
2019-05-01T02:35:50.151Z,92.26
2019-05-01T02:38:22.419Z,92.24
2019-05-01T02:40:59.687Z,92.31
2019-05-01T02:43:34.367Z,92.65
2019-05-01T02:46:07.055Z,92.91
2019-05-01T02:48:42.009Z,93.02
2019-05-01T02:51:14.154Z,93.56
2019-05-01T02:53:47.370Z,94.18
2019-05-01T02:56:42.387Z,94.57
2019-05-01T02:59:15.224Z,94.56
2019-05-01T03:01:48.176Z,94.95
2019-05-01T03:04:20.475Z,95.13
2019-05-01T03:06:52.950Z,94.84
2019-05-01T03:09:25.281Z,95.31
2019-05-01T03:11:57.708Z,95.20
2019-05-01T03:14:32.186Z,94.59
2019-05-01T03:17:07.996Z,94.80
2019-05-01T03:19:59.503Z,95.08
2019-05-01T03:22:43.347Z,94.99
2019-05-01T03:25:15.090Z,94.58
2019-05-01T03:27:47.170Z,94.24
2019-05-01T03:30:18.955Z,94.36
2019-05-01T03:32:50.769Z,93.72
2019-05-01T03:35:22.254Z,93.43
2019-05-01T03:37:54.109Z,93.67
2019-05-01T03:40:26.374Z,93.76
2019-05-01T03:42:58.235Z,93.55
2019-05-01T03:45:33.929Z,93.60
2019-05-01T03:48:04.922Z,93.30
2019-05-01T03:50:36.782Z,93.28
2019-05-01T03:53:08.668Z,93.15
2019-05-01T03:55:40.464Z,93.04
2019-05-01T03:58:12.128Z,93.48
2019-05-01T04:00:54.315Z,93.84
2019-05-01T04:03:47.677Z,93.98
2019-05-01T04:06:19.732Z,94.19
2019-05-01T04:08:51.560Z,94.69
2019-05-01T04:11:23.306Z,94.69
2019-05-01T04:13:55.439Z,94.71
2019-05-01T04:16:27.000Z,94.96
2019-05-01T04:18:59.197Z,95.35
2019-05-01T04:21:36.089Z,95.81
2019-05-01T04:24:08.111Z,96.25
2019-05-01T04:26:39.733Z,96.41
2019-05-01T04:29:30.573Z,96.39
2019-05-01T04:32:52.181Z,96.67
2019-05-01T04:35:21.740Z,96.60
2019-05-01T04:37:57.310Z,96.31
2019-05-01T04:40:29.257Z,96.25
2019-05-01T04:43:00.761Z,98.80
2019-05-01T04:45:32.475Z,100.00
2019-05-01T04:48:04.347Z,100.00
2019-05-01T04:50:35.952Z,100.00
2019-05-01T04:53:07.952Z,100.00
2019-05-01T04:55:39.861Z,99.02
2019-05-01T04:58:12.058Z,97.79
2019-05-01T05:00:43.729Z,97.21
2019-05-01T05:03:18.623Z,96.16
2019-05-01T05:05:50.306Z,95.72
2019-05-01T05:08:22.408Z,95.69
2019-05-01T05:10:55.976Z,95.89
2019-05-01T05:13:39.706Z,95.56
2019-05-01T05:16:26.400Z,95.41
2019-05-01T05:18:58.213Z,94.82
2019-05-01T05:21:29.917Z,93.76
2019-05-01T05:24:01.453Z,93.98
2019-05-01T05:26:33.432Z,93.01
2019-05-01T05:29:05.438Z,93.14
2019-05-01T05:31:37.796Z,91.91
2019-05-01T05:34:11.918Z,91.74
2019-05-01T05:36:45.038Z,90.98
2019-05-01T05:39:32.480Z,91.16
2019-05-01T05:42:05.853Z,90.80
2019-05-01T05:44:37.839Z,90.98
2019-05-01T05:47:10.038Z,91.11
2019-05-01T05:49:41.772Z,91.74
2019-05-01T05:52:45.110Z,92.38
2019-05-01T05:55:35.526Z,92.86
2019-05-01T05:58:21.983Z,91.92
2019-05-01T06:01:18.669Z,92.03
2019-05-01T06:04:12.383Z,91.05
2019-05-01T06:07:00.562Z,91.78
2019-05-01T06:09:52.721Z,92.42
2019-05-01T06:12:46.276Z,90.71
2019-05-01T06:15:49.006Z,90.88
2019-05-01T06:18:26.443Z,91.29
2019-05-01T06:21:17.369Z,91.86
2019-05-01T06:24:06.320Z,91.59
2019-05-01T06:26:37.425Z,91.96
2019-05-01T06:29:08.269Z,92.02
2019-05-01T06:31:40.228Z,91.36
2019-05-01T06:34:11.794Z,91.00
2019-05-01T06:36:44.282Z,90.63
2019-05-01T06:39:17.008Z,91.54
2019-05-01T06:41:48.951Z,90.15
2019-05-01T06:44:43.904Z,89.69
2019-05-01T06:47:38.356Z,89.46
2019-05-01T06:50:32.130Z,89.19
2019-05-01T06:53:05.948Z,89.32
2019-05-01T06:55:38.235Z,89.51
2019-05-01T06:58:10.057Z,89.48
2019-05-01T07:00:43.053Z,89.48
2019-05-01T07:03:15.741Z,88.46
2019-05-01T07:05:48.992Z,88.65
2019-05-01T07:08:24.794Z,88.38
2019-05-01T07:10:54.262Z,87.36
2019-05-01T07:13:25.905Z,87.10
2019-05-01T07:16:00.375Z,84.18
2019-05-01T07:18:30.961Z,82.87
2019-05-01T07:21:02.567Z,81.95
2019-05-01T07:23:34.249Z,82.11
2019-05-01T07:26:09.924Z,81.59
2019-05-01T07:28:40.768Z,79.83
2019-05-01T07:31:14.456Z,79.34
2019-05-01T07:33:51.323Z,78.88
2019-05-01T07:36:21.030Z,78.56
2019-05-01T07:38:52.862Z,77.18
2019-05-01T07:41:24.612Z,77.15
2019-05-01T07:44:16.521Z,77.77
2019-05-01T07:46:56.298Z,77.78
2019-05-01T07:49:47.760Z,76.60
2019-05-01T07:52:18.752Z,68.87
2019-05-01T07:54:51.766Z,64.65
2019-05-01T07:57:24.860Z,62.14
2019-05-01T07:59:58.269Z,60.77
2019-05-01T08:02:31.090Z,60.72
2019-05-01T08:05:04.964Z,59.80
2019-05-01T08:07:37.774Z,58.22
2019-05-01T08:10:09.616Z,60.42
2019-05-01T08:12:41.170Z,59.57
2019-05-01T08:15:12.783Z,60.42
2019-05-01T08:17:48.785Z,58.99
2019-05-01T08:20:35.669Z,60.51
2019-05-01T08:23:07.669Z,59.31
2019-05-01T08:25:39.368Z,56.21
2019-05-01T08:28:16.656Z,57.40
2019-05-01T08:31:01.861Z,52.34
2019-05-01T08:33:52.222Z,50.34
2019-05-01T08:36:23.741Z,51.10
2019-05-01T08:38:55.368Z,51.73
2019-05-01T08:41:31.692Z,52.57
2019-05-01T08:44:00.531Z,53.18
2019-05-01T08:46:51.017Z,52.15
2019-05-01T08:49:30.649Z,53.30
2019-05-01T08:52:04.877Z,50.11
2019-05-01T08:54:35.556Z,49.86
2019-05-01T08:57:08.048Z,51.04
2019-05-01T08:59:39.673Z,48.25
2019-05-01T09:02:11.312Z,47.99
2019-05-01T09:04:43.061Z,49.18
2019-05-01T09:07:19.142Z,46.57
2019-05-01T09:09:48.325Z,46.57
2019-05-01T09:12:19.918Z,49.42
2019-05-01T09:14:51.454Z,47.63
2019-05-01T09:17:23.191Z,46.31
2019-05-01T09:19:54.730Z,45.81
2019-05-01T09:22:26.497Z,46.10
2019-05-01T09:24:59.914Z,45.74
2019-05-01T09:27:55.478Z,43.19
2019-05-01T09:30:31.130Z,41.69
2019-05-01T09:33:02.798Z,41.28
2019-05-01T09:35:34.454Z,42.03
2019-05-01T09:38:06.049Z,40.99
2019-05-01T09:40:37.867Z,41.24
2019-05-01T09:43:09.476Z,41.58
2019-05-01T09:45:41.074Z,38.15
2019-05-01T09:48:12.754Z,39.21
2019-05-01T09:50:48.982Z,39.79
2019-05-01T09:53:29.738Z,39.19
2019-05-01T09:56:07.678Z,38.88
2019-05-01T09:58:38.915Z,39.27
2019-05-01T10:01:11.709Z,38.80
2019-05-01T10:03:44.863Z,39.30
2019-05-01T10:06:18.840Z,40.59
2019-05-01T10:08:50.554Z,37.46
2019-05-01T10:11:22.108Z,38.76
2019-05-01T10:13:58.284Z,38.59
2019-05-01T10:16:26.981Z,39.26
2019-05-01T10:18:58.697Z,37.44
2019-05-01T10:21:30.229Z,40.79
2019-05-01T10:24:01.784Z,38.80
2019-05-01T10:26:35.053Z,40.88
2019-05-01T10:29:21.398Z,37.76
2019-05-01T10:32:16.878Z,36.37
2019-05-01T10:34:57.053Z,35.13
2019-05-01T10:37:33.427Z,35.22
2019-05-01T10:40:01.978Z,32.76
2019-05-01T10:42:34.815Z,34.21
2019-05-01T10:45:06.677Z,34.82
2019-05-01T10:47:38.429Z,34.06
2019-05-01T10:50:10.353Z,35.26
2019-05-01T10:52:41.889Z,32.87
2019-05-01T10:55:13.599Z,35.21
2019-05-01T10:57:45.091Z,35.27
2019-05-01T11:00:17.035Z,35.88
2019-05-01T11:02:48.678Z,37.07
2019-05-01T11:05:20.302Z,35.90
2019-05-01T11:07:51.817Z,37.19
2019-05-01T11:10:23.372Z,38.32
2019-05-01T11:12:55.040Z,33.06
2019-05-01T11:15:26.683Z,30.90
2019-05-01T11:17:58.400Z,33.16
2019-05-01T11:20:31.223Z,33.80
2019-05-01T11:23:02.756Z,33.67
2019-05-01T11:25:35.015Z,32.84
2019-05-01T11:28:07.810Z,32.75
2019-05-01T11:30:39.408Z,32.47
2019-05-01T11:33:42.938Z,32.95
2019-05-01T11:36:34.510Z,32.14
2019-05-01T11:39:28.024Z,29.42
2019-05-01T11:42:04.192Z,30.68
2019-05-01T11:44:35.817Z,32.69
2019-05-01T11:47:07.480Z,31.61
2019-05-01T11:49:39.053Z,31.16
2019-05-01T11:52:10.715Z,30.65
2019-05-01T11:54:42.406Z,30.83
2019-05-01T11:57:14.046Z,29.55
2019-05-01T11:59:45.630Z,28.73
2019-05-01T12:02:17.296Z,29.90
2019-05-01T12:04:48.965Z,31.44
2019-05-01T12:07:20.575Z,30.02
2019-05-01T12:09:52.117Z,31.48
2019-05-01T12:12:25.432Z,32.91
2019-05-01T12:14:56.957Z,32.66
2019-05-01T12:17:33.721Z,33.76
2019-05-01T12:20:05.996Z,32.82
2019-05-01T12:22:37.644Z,31.98
2019-05-01T12:25:09.343Z,31.84
2019-05-01T12:27:40.922Z,32.01
2019-05-01T12:30:15.683Z,32.17
2019-05-01T12:32:47.238Z,29.15
2019-05-01T12:35:18.833Z,30.86
2019-05-01T12:37:50.987Z,29.69
2019-05-01T12:40:23.773Z,31.36
2019-05-01T12:42:55.529Z,30.48
2019-05-01T12:45:27.247Z,31.61
2019-05-01T12:48:04.113Z,30.82
2019-05-01T12:50:37.219Z,31.18
2019-05-01T12:53:28.759Z,29.80
2019-05-01T12:56:17.924Z,30.33
2019-05-01T12:58:50.915Z,29.51
2019-05-01T13:01:22.474Z,31.31
2019-05-01T13:03:54.106Z,31.31
2019-05-01T13:06:25.642Z,28.80
2019-05-01T13:08:57.232Z,29.86
2019-05-01T13:11:28.978Z,31.06
2019-05-01T13:14:00.852Z,29.40
2019-05-01T13:16:32.431Z,27.70
2019-05-01T13:19:04.120Z,28.02
2019-05-01T13:21:35.747Z,29.42
2019-05-01T13:24:07.737Z,30.53
2019-05-01T13:26:47.148Z,29.48
2019-05-01T13:29:32.737Z,30.64
2019-05-01T13:32:26.251Z,28.60
2019-05-01T13:34:57.902Z,29.99
2019-05-01T13:37:29.498Z,28.41
2019-05-01T13:40:01.143Z,30.24
2019-05-01T13:42:32.915Z,29.03
2019-05-01T13:45:05.357Z,29.98
2019-05-01T13:47:37.047Z,32.09
2019-05-01T13:50:09.436Z,31.10
2019-05-01T13:52:41.242Z,31.32
2019-05-01T13:55:13.516Z,32.65
2019-05-01T13:57:45.213Z,32.46
2019-05-01T14:00:18.023Z,30.37
2019-05-01T14:02:49.799Z,32.57
2019-05-01T14:05:21.474Z,32.32
2019-05-01T14:07:52.974Z,31.60
2019-05-01T14:10:24.603Z,32.33
2019-05-01T14:12:56.225Z,31.67
2019-05-01T14:15:27.755Z,32.98
2019-05-01T14:17:59.312Z,32.59
2019-05-01T14:20:48.234Z,31.46
2019-05-01T14:23:25.387Z,32.82
2019-05-01T14:26:06.614Z,33.08
2019-05-01T14:28:38.342Z,32.12
2019-05-01T14:31:09.846Z,31.82
2019-05-01T14:33:41.510Z,30.24
2019-05-01T14:36:13.096Z,30.03
2019-05-01T14:38:46.424Z,31.97
2019-05-01T14:41:17.919Z,31.35
2019-05-01T14:43:49.571Z,30.35
2019-05-01T14:46:21.160Z,31.64
2019-05-01T14:48:52.718Z,32.28
2019-05-01T14:51:24.279Z,30.54
2019-05-01T14:53:55.880Z,31.27
2019-05-01T14:56:27.471Z,30.52
2019-05-01T14:58:59.598Z,31.71
2019-05-01T15:01:31.181Z,31.13
2019-05-01T15:04:02.870Z,32.79
2019-05-01T15:06:34.475Z,32.07
2019-05-01T15:09:08.337Z,30.96
2019-05-01T15:11:41.146Z,31.40
2019-05-01T15:14:30.488Z,29.17
2019-05-01T15:17:18.911Z,28.91
2019-05-01T15:20:03.165Z,30.37
2019-05-01T15:22:36.349Z,28.53
2019-05-01T15:25:08.174Z,28.87
2019-05-01T15:27:39.823Z,28.64
2019-05-01T15:30:13.198Z,29.42
2019-05-01T15:32:44.705Z,30.89
2019-05-01T15:35:16.534Z,30.42
2019-05-01T15:37:56.595Z,29.88
2019-05-01T15:40:28.797Z,29.12
2019-05-01T15:43:23.677Z,30.62
2019-05-01T15:45:55.275Z,29.19
2019-05-01T15:48:26.984Z,29.97
2019-05-01T15:50:58.748Z,28.82
2019-05-01T15:53:30.676Z,29.24
2019-05-01T15:56:02.265Z,30.28
2019-05-01T15:58:34.034Z,31.38
2019-05-01T16:01:05.530Z,31.26
2019-05-01T16:03:37.165Z,31.58
2019-05-01T16:06:08.733Z,31.84
2019-05-01T16:08:40.320Z,32.00
2019-05-01T16:11:19.926Z,33.17
2019-05-01T16:13:51.502Z,32.79
2019-05-01T16:16:23.283Z,33.95
2019-05-01T16:18:54.859Z,34.63
2019-05-01T16:21:26.929Z,35.97
2019-05-01T16:23:58.474Z,36.06
2019-05-01T16:26:30.370Z,36.03
2019-05-01T16:29:02.004Z,36.40
2019-05-01T16:31:33.538Z,36.27
2019-05-01T16:34:05.198Z,35.60
2019-05-01T16:36:36.710Z,35.72
2019-05-01T16:39:42.799Z,35.50
2019-05-01T16:42:14.434Z,35.12
2019-05-01T16:44:45.901Z,36.11
2019-05-01T16:47:17.705Z,35.89
2019-05-01T16:49:49.463Z,34.64
2019-05-01T16:52:25.210Z,34.98
2019-05-01T16:54:59.323Z,35.58
2019-05-01T16:57:30.281Z,35.58
2019-05-01T17:00:02.142Z,35.19
2019-05-01T17:03:00.507Z,35.37
2019-05-01T17:06:09.197Z,36.03
2019-05-01T17:08:52.991Z,35.62
2019-05-01T17:11:28.131Z,36.70
2019-05-01T17:14:00.152Z,36.22
2019-05-01T17:16:31.733Z,36.56
2019-05-01T17:19:03.946Z,36.85
2019-05-01T17:42:39.207Z,39.77
2019-05-01T17:45:11.444Z,41.45
2019-05-01T17:47:43.621Z,41.23
2019-05-01T17:50:16.381Z,41.37
2019-05-01T17:52:48.886Z,41.68
2019-05-01T17:55:20.726Z,41.82
2019-05-01T17:57:52.816Z,42.06
2019-05-01T18:00:46.812Z,42.56
2019-05-01T18:03:52.588Z,42.40
2019-05-01T18:06:27.583Z,42.28
2019-05-01T18:09:03.266Z,42.33
2019-05-01T18:11:34.189Z,42.94
2019-05-01T18:14:06.181Z,43.10
2019-05-01T18:16:39.754Z,43.42
2019-05-01T18:19:15.324Z,43.45
2019-05-01T18:21:52.232Z,43.68
2019-05-01T18:24:47.329Z,43.84
2019-05-01T18:27:36.959Z,44.19
2019-05-01T18:30:15.948Z,44.11
2019-05-01T18:32:46.923Z,45.00
2019-05-01T18:35:19.146Z,45.42
2019-05-01T18:38:06.138Z,45.92
2019-05-01T18:41:04.086Z,46.26
2019-05-01T18:43:35.885Z,46.56
2019-05-01T18:46:09.382Z,46.86
2019-05-01T18:48:41.544Z,47.37
2019-05-01T18:51:16.255Z,47.20
2019-05-01T18:53:47.112Z,47.09
2019-05-01T18:56:18.752Z,47.28
2019-05-01T18:58:50.505Z,46.96
2019-05-01T19:01:22.718Z,47.46
2019-05-01T19:03:54.475Z,47.34
2019-05-01T19:06:40.375Z,47.66
2019-05-01T19:09:00.369Z,48.05
2019-05-01T19:11:33.691Z,48.16
2019-05-01T19:14:06.100Z,47.80
2019-05-01T19:16:40.057Z,48.04
2019-05-01T19:19:12.760Z,47.94
2019-05-01T19:21:46.519Z,47.61
2019-05-01T19:24:18.624Z,47.89
2019-05-01T19:26:50.482Z,48.31
2019-05-01T19:29:26.877Z,48.49
2019-05-01T19:31:55.645Z,48.42
2019-05-01T19:34:27.784Z,48.28
2019-05-01T19:37:01.401Z,48.35
2019-05-01T19:39:43.574Z,48.91
2019-05-01T19:42:06.943Z,49.17
2019-05-01T19:44:38.750Z,49.51
2019-05-01T19:47:11.114Z,49.44
2019-05-01T19:49:43.119Z,50.10
2019-05-01T19:52:14.890Z,49.35
2019-05-01T19:54:46.855Z,49.51
2019-05-01T19:57:18.733Z,50.15
2019-05-01T19:59:50.743Z,50.74
2019-05-01T20:02:24.067Z,51.24
2019-05-01T20:04:56.539Z,52.56
2019-05-01T20:07:28.146Z,53.14
2019-05-01T20:10:00.107Z,53.68
2019-05-01T20:12:32.345Z,53.44
2019-05-01T20:15:05.039Z,54.19
2019-05-01T20:17:37.204Z,53.97
2019-05-01T20:20:09.288Z,55.58
2019-05-01T20:22:41.273Z,60.43
2019-05-01T20:25:14.698Z,62.22
2019-05-01T20:27:52.989Z,65.68
2019-05-01T20:30:21.608Z,68.68
2019-05-01T20:32:53.334Z,70.94
2019-05-01T20:35:28.440Z,73.31
2019-05-01T20:37:58.590Z,74.77
2019-05-01T20:40:31.327Z,76.25
2019-05-01T20:43:05.819Z,77.18
2019-05-01T20:45:38.340Z,78.52
2019-05-01T20:48:10.743Z,79.65
2019-05-01T20:50:42.697Z,80.56
2019-05-01T20:53:15.076Z,82.31
2019-05-01T20:55:53.797Z,83.29
2019-05-01T20:58:25.678Z,84.16
2019-05-01T21:01:02.412Z,84.68
2019-05-01T21:03:35.546Z,85.37
2019-05-01T21:06:28.365Z,85.54
2019-05-01T21:09:21.643Z,85.78
2019-05-01T21:12:05.143Z,86.11
2019-05-01T21:14:30.185Z,86.07
2019-05-01T21:17:01.876Z,86.13
2019-05-01T21:19:35.882Z,86.25
2019-05-01T21:22:06.952Z,86.37
2019-05-01T21:24:38.897Z,86.77
2019-05-01T21:27:10.880Z,86.87
2019-05-01T21:29:44.511Z,87.24
2019-05-01T21:32:18.251Z,87.20
2019-05-01T21:34:50.085Z,87.29
2019-05-01T21:37:21.748Z,86.95
2019-05-01T21:39:55.585Z,87.11
2019-05-01T21:42:27.271Z,87.06
2019-05-01T21:44:59.149Z,87.22
2019-05-01T21:47:31.109Z,87.22
2019-05-01T21:50:03.335Z,88.06
2019-05-01T21:52:35.555Z,88.51
2019-05-01T21:55:07.658Z,89.05
2019-05-01T21:57:40.783Z,89.24
2019-05-01T22:00:15.490Z,89.43
2019-05-01T22:02:48.625Z,89.51
2019-05-01T22:05:20.263Z,89.54
2019-05-01T22:07:52.373Z,89.40
2019-05-01T22:10:26.460Z,89.47
2019-05-01T22:12:58.144Z,89.35
2019-05-01T22:15:35.047Z,89.29
2019-05-01T22:18:12.771Z,89.56
2019-05-01T22:20:51.784Z,89.47
2019-05-01T22:23:25.371Z,89.62
2019-05-01T22:25:57.796Z,89.90
2019-05-01T22:28:35.300Z,89.67
2019-05-01T22:31:21.852Z,89.69
2019-05-01T22:33:54.731Z,89.53
2019-05-01T22:36:26.603Z,89.40
2019-05-01T22:39:02.278Z,89.51
2019-05-01T22:41:33.710Z,89.64
2019-05-01T22:44:06.109Z,89.45
2019-05-01T22:46:40.533Z,89.33
2019-05-01T22:49:12.349Z,89.35
2019-05-01T22:51:44.367Z,89.58
2019-05-01T22:54:16.392Z,89.71
2019-05-01T22:56:48.124Z,89.79
2019-05-01T22:59:20.356Z,89.87
2019-05-01T23:01:54.513Z,89.78
2019-05-01T23:04:26.551Z,90.06
2019-05-01T23:06:58.340Z,90.18
2019-05-01T23:09:31.692Z,90.24
2019-05-01T23:12:03.433Z,90.23
2019-05-01T23:14:35.607Z,90.13
2019-05-01T23:17:34.896Z,90.17
2019-05-01T23:20:08.356Z,90.18
2019-05-01T23:22:40.335Z,90.09
2019-05-01T23:25:13.551Z,90.41
2019-05-01T23:27:45.613Z,90.64
2019-05-01T23:30:19.337Z,91.21
2019-05-01T23:32:51.088Z,91.61
2019-05-01T23:35:22.766Z,92.60
2019-05-01T23:37:54.388Z,93.23
2019-05-01T23:40:27.206Z,93.21
2019-05-01T23:42:59.263Z,93.33
2019-05-01T23:45:30.840Z,93.03
2019-05-01T23:48:02.553Z,93.71
2019-05-01T23:50:34.196Z,93.45
2019-05-01T23:53:09.082Z,93.69
2019-05-01T23:55:39.616Z,93.98
2019-05-01T23:58:11.260Z,94.19
